Kvb Empire — PD5101 — position and weather

sailwx.info

Track history (hours):
 
Tides and Currents Weather Stations Pressure Air Temp Water Temp Dewpoint Dewpoint Depression Visibility Wind Speed Wind Dir Waves Ship Positions

Kvb Empire

Last reported at 2016-Aug-30 21:30 UTC. Time now 2016-Aug-30 22:36 UTC.
Position N 51°14' E 006°46'.

Length 183 m; draft 3 m.

Type: Ship. MMSI: 244670090.

Date/timePositionNaut miles runAvg speedWind from/ knotsBaromVisibWave heightAir tempDewpointWater temp
2016-Aug-30 21:30N 51°14' E 006°46'4 4.2
2016-Aug-30 20:33N 51°10' E 006°48'15 6.0
2016-Aug-30 18:06N 50°58' E 006°59'4 6.6
2016-Aug-30 17:29N 50°54' E 007°01'5 5.1
2016-Aug-30 16:33N 50°49' E 007°02'9 8.2
2016-Aug-30 15:28N 50°42' E 007°10'94 6.2
2016-Aug-30 00:15N 49°23' E 008°30'5 6.8
2016-Aug-29 23:30N 49°18' E 008°29'8 7.9
2016-Aug-29 22:33N 49°11' E 008°23'9 9.0
2016-Aug-29 21:32N 49°03' E 008°18'6 0.2
2016-Aug-28 14:18N 48°58' E 008°14'4 5.4
2016-Aug-28 13:33N 49°01' E 008°18'6 5.6
2016-Aug-28 12:33N 49°06' E 008°21'5 5.5
2016-Aug-28 11:33N 49°11' E 008°23'5 5.4
2016-Aug-28 10:33N 49°16' E 008°27'6 4.3
2016-Aug-28 09:15N 49°21' E 008°29'94 2.4
2016-Aug-26 18:26N 50°41' E 007°11'4 4.8
2016-Aug-26 17:34N 50°44' E 007°07'5 4.8
2016-Aug-26 16:33N 50°48' E 007°02'3 3.3
2016-Aug-26 15:33N 50°51' E 007°00'2 2.4
2016-Aug-26 14:31N 50°54' E 007°00'4 4.2
2016-Aug-26 13:30N 50°58' E 006°60'14 3.6
2016-Aug-26 09:33N 51°10' E 006°48'4 3.6
2016-Aug-26 08:33N 51°12' E 006°44'3 2.6
2016-Aug-26 07:33N 51°15' E 006°46'15 3.5
2016-Aug-26 03:16N 51°30' E 006°42'2 3.1
2016-Aug-26 02:32N 51°32' E 006°41'3 3.2
2016-Aug-26 01:32N 51°34' E 006°37'5 4.5
2016-Aug-26 00:24N 51°39' E 006°36'4 5.1
2016-Aug-25 23:34N 51°40' E 006°29'10 4.8
2016-Aug-25 21:32N 51°47' E 006°19'18 4.5
2016-Aug-25 17:33N 51°51' E 005°51'21 5.1
2016-Aug-25 13:33N 51°58' E 005°19'4 3.6
2016-Aug-25 12:34N 51°59' E 005°14'7 7.3
2016-Aug-25 11:34N 52°04' E 005°05'3 2.7
2016-Aug-25 10:33N 52°07' E 005°04'7 7.0
2016-Aug-25 09:33N 52°14' E 005°00'7 7.4
2016-Aug-25 08:33N 52°21' E 004°59'7 6.6
2016-Aug-25 07:34N 52°25' E 004°51'1 0.9
2016-Aug-25 06:34N 52°24' E 004°50'0 0.0
2016-Aug-25 04:34N 52°24' E 004°50'0 0.0
2016-Aug-25 03:34N 52°24' E 004°50'0 0.0
2016-Aug-25 02:34N 52°24' E 004°50'0 0.0
2016-Aug-25 01:34N 52°24' E 004°50'0 0.1
2016-Aug-25 00:34N 52°24' E 004°49'5 4.7
2016-Aug-24 23:33N 52°23' E 004°57'7 7.2
2016-Aug-24 22:33N 52°16' E 005°01'8 7.6
2016-Aug-24 21:34N 52°09' E 005°01'7 7.3
2016-Aug-24 20:33N 52°02' E 005°07'2 1.6
2016-Aug-24 19:33N 52°01' E 005°06'5 5.5
2016-Aug-24 18:33N 51°58' E 004°59'9 9.2
2016-Aug-24 17:33N 51°55' E 004°45'8 8.0
2016-Aug-24 16:33N 51°54' E 004°32'6 5.7
2016-Aug-24 15:33N 51°54' E 004°23'4 3.9
2016-Aug-24 14:33N 51°53' E 004°17'0 0.0
2016-Aug-24 13:33N 51°53' E 004°17'0 0.0
2016-Aug-24 12:33N 51°53' E 004°17'0 0.0
2016-Aug-24 11:33N 51°53' E 004°17'0 0.0
2016-Aug-24 10:34N 51°53' E 004°17'0 0.0
2016-Aug-24 09:33N 51°53' E 004°17'0 0.0
2016-Aug-24 08:33N 51°53' E 004°17'0 0.0
2016-Aug-24 07:33N 51°53' E 004°17'0 0.0
2016-Aug-24 06:33N 51°53' E 004°17'0 0.0
2016-Aug-24 04:33N 51°53' E 004°17'0 0.0
2016-Aug-24 03:33N 51°53' E 004°17'0 0.0
2016-Aug-24 02:33N 51°53' E 004°17'0 0.0
2016-Aug-24 01:33N 51°53' E 004°17'0 0.0
2016-Aug-24 00:33N 51°53' E 004°17'0 0.0
2016-Aug-23 23:33N 51°53' E 004°17'0 0.0
2016-Aug-23 22:33N 51°53' E 004°17'0 0.0
2016-Aug-23 21:33N 51°53' E 004°17'0 0.0
2016-Aug-23 20:33N 51°53' E 004°17'0 0.0
2016-Aug-23 19:33N 51°53' E 004°17'0 0.4
2016-Aug-23 18:33N 51°53' E 004°16'0 0.0
2016-Aug-23 17:33N 51°53' E 004°16'0 0.1
2016-Aug-23 16:33N 51°53' E 004°16'0 0.5
2016-Aug-23 15:33N 51°53' E 004°17'0 0.0
2016-Aug-23 14:33N 51°53' E 004°17'0 0.0
2016-Aug-23 13:33N 51°53' E 004°17'0 0.1
2016-Aug-23 12:34N 51°53' E 004°17'0 0.0
2016-Aug-23 11:33N 51°53' E 004°17'0 0.0
2016-Aug-23 10:33N 51°53' E 004°17'0 0.0
2016-Aug-23 09:33N 51°53' E 004°17'0 0.0
2016-Aug-23 08:33N 51°53' E 004°17'0 0.0
2016-Aug-23 07:34N 51°53' E 004°17'0 0.0
2016-Aug-23 06:33N 51°53' E 004°17'0 0.1
2016-Aug-23 05:33N 51°53' E 004°16'0 0.1
2016-Aug-23 04:33N 51°53' E 004°17'0 0.0
2016-Aug-23 03:33N 51°53' E 004°17'0 0.0
2016-Aug-23 02:33N 51°53' E 004°17'0 0.0
2016-Aug-23 01:33N 51°53' E 004°17'0 0.0
2016-Aug-23 00:33N 51°53' E 004°17'0 0.0
2016-Aug-22 23:33N 51°53' E 004°17'0 0.0
2016-Aug-22 22:33N 51°53' E 004°17'0 0.0
2016-Aug-22 21:33N 51°53' E 004°17'0 0.0
2016-Aug-22 20:33N 51°53' E 004°17'0 0.0
2016-Aug-22 19:33N 51°53' E 004°17'3 2.7
2016-Aug-22 18:33N 51°54' E 004°21'5 5.3
2016-Aug-22 17:33N 51°55' E 004°29'0 0.0
2016-Aug-22 16:33N 51°55' E 004°29'0 0.0
2016-Aug-22 15:33N 51°55' E 004°29'0 0.0
2016-Aug-22 14:33N 51°55' E 004°29'0 0.0
2016-Aug-22 13:34N 51°55' E 004°29'0 0.0
2016-Aug-22 12:33N 51°55' E 004°29'4 4.3
2016-Aug-22 11:33N 51°54' E 004°36'8 8.0
2016-Aug-22 10:33N 51°49' E 004°47'9 8.4
2016-Aug-22 09:31N 51°49' E 005°01'9 8.1
2016-Aug-22 08:23N 51°49' E 005°16'14 7.5
2016-Aug-22 06:28N 51°54' E 005°37'9 8.9
2016-Aug-22 05:31N 51°51' E 005°50'1 1.0
2016-Aug-22 04:32N 51°51' E 005°52'0 0.0
2016-Aug-22 03:33N 51°51' E 005°52'0 0.0
2016-Aug-21 23:25N 51°51' E 005°52'0 0.0
2016-Aug-21 22:23N 51°51' E 005°52'0 0.0
2016-Aug-21 21:30N 51°51' E 005°52'0 0.0
2016-Aug-21 19:04N 51°51' E 005°52'0 0.0
2016-Aug-21 18:33N 51°51' E 005°52'0 0.0
2016-Aug-21 17:31N 51°51' E 005°52'24 6.1
2016-Aug-21 13:33N 51°41' E 006°28'7 6.7
2016-Aug-21 12:33N 51°37' E 006°36'8 6.8
2016-Aug-21 11:22N 51°30' E 006°43'13 6.4
2016-Aug-21 09:16N 51°17' E 006°42'3 4.6
2016-Aug-21 08:34N 51°14' E 006°43'6 5.7
2016-Aug-21 07:33N 51°10' E 006°50'  
Track history (hours):
 
Tides and Currents Weather Stations Pressure Air Temp Water Temp Dewpoint Dewpoint Depression Visibility Wind Speed Wind Dir Waves Ship Positions

Kvb Empire

Last reported at 2016-Aug-30 21:30 UTC. Time now 2016-Aug-30 22:36 UTC.
Position N 51°14' E 006°46'.

Length 183 m; draft 3 m.

Type: Ship. MMSI: 244670090.

Date/timePositionNaut miles runAvg speedWind from/ knotsBaromVisibWave heightAir tempDewpointWater temp
2016-Aug-30 21:30N 51°14' E 006°46'4 4.2
2016-Aug-30 20:33N 51°10' E 006°48'15 6.0
2016-Aug-30 18:06N 50°58' E 006°59'4 6.6
2016-Aug-30 17:29N 50°54' E 007°01'5 5.1
2016-Aug-30 16:33N 50°49' E 007°02'9 8.2
2016-Aug-30 15:28N 50°42' E 007°10'94 6.2
2016-Aug-30 00:15N 49°23' E 008°30'5 6.8
2016-Aug-29 23:30N 49°18' E 008°29'8 7.9
2016-Aug-29 22:33N 49°11' E 008°23'9 9.0
2016-Aug-29 21:32N 49°03' E 008°18'6 0.2
2016-Aug-28 14:18N 48°58' E 008°14'4 5.4
2016-Aug-28 13:33N 49°01' E 008°18'6 5.6
2016-Aug-28 12:33N 49°06' E 008°21'5 5.5
2016-Aug-28 11:33N 49°11' E 008°23'5 5.4
2016-Aug-28 10:33N 49°16' E 008°27'6 4.3
2016-Aug-28 09:15N 49°21' E 008°29'94 2.4
2016-Aug-26 18:26N 50°41' E 007°11'4 4.8
2016-Aug-26 17:34N 50°44' E 007°07'5 4.8
2016-Aug-26 16:33N 50°48' E 007°02'3 3.3
2016-Aug-26 15:33N 50°51' E 007°00'2 2.4
2016-Aug-26 14:31N 50°54' E 007°00'4 4.2
2016-Aug-26 13:30N 50°58' E 006°60'14 3.6
2016-Aug-26 09:33N 51°10' E 006°48'4 3.6
2016-Aug-26 08:33N 51°12' E 006°44'3 2.6
2016-Aug-26 07:33N 51°15' E 006°46'15 3.5
2016-Aug-26 03:16N 51°30' E 006°42'2 3.1
2016-Aug-26 02:32N 51°32' E 006°41'3 3.2
2016-Aug-26 01:32N 51°34' E 006°37'5 4.5
2016-Aug-26 00:24N 51°39' E 006°36'4 5.1
2016-Aug-25 23:34N 51°40' E 006°29'10 4.8
2016-Aug-25 21:32N 51°47' E 006°19'18 4.5
2016-Aug-25 17:33N 51°51' E 005°51'21 5.1
2016-Aug-25 13:33N 51°58' E 005°19'4 3.6
2016-Aug-25 12:34N 51°59' E 005°14'7 7.3
2016-Aug-25 11:34N 52°04' E 005°05'3 2.7
2016-Aug-25 10:33N 52°07' E 005°04'7 7.0
2016-Aug-25 09:33N 52°14' E 005°00'7 7.4
2016-Aug-25 08:33N 52°21' E 004°59'7 6.6
2016-Aug-25 07:34N 52°25' E 004°51'1 0.9
2016-Aug-25 06:34N 52°24' E 004°50'0 0.0
2016-Aug-25 04:34N 52°24' E 004°50'0 0.0
2016-Aug-25 03:34N 52°24' E 004°50'0 0.0
2016-Aug-25 02:34N 52°24' E 004°50'0 0.0
2016-Aug-25 01:34N 52°24' E 004°50'0 0.1
2016-Aug-25 00:34N 52°24' E 004°49'5 4.7
2016-Aug-24 23:33N 52°23' E 004°57'7 7.2
2016-Aug-24 22:33N 52°16' E 005°01'8 7.6
2016-Aug-24 21:34N 52°09' E 005°01'7 7.3
2016-Aug-24 20:33N 52°02' E 005°07'2 1.6
2016-Aug-24 19:33N 52°01' E 005°06'5 5.5
2016-Aug-24 18:33N 51°58' E 004°59'9 9.2
2016-Aug-24 17:33N 51°55' E 004°45'8 8.0
2016-Aug-24 16:33N 51°54' E 004°32'6 5.7
2016-Aug-24 15:33N 51°54' E 004°23'4 3.9
2016-Aug-24 14:33N 51°53' E 004°17'0 0.0
2016-Aug-24 13:33N 51°53' E 004°17'0 0.0
2016-Aug-24 12:33N 51°53' E 004°17'0 0.0
2016-Aug-24 11:33N 51°53' E 004°17'0 0.0
2016-Aug-24 10:34N 51°53' E 004°17'0 0.0
2016-Aug-24 09:33N 51°53' E 004°17'0 0.0
2016-Aug-24 08:33N 51°53' E 004°17'0 0.0
2016-Aug-24 07:33N 51°53' E 004°17'0 0.0
2016-Aug-24 06:33N 51°53' E 004°17'0 0.0
2016-Aug-24 04:33N 51°53' E 004°17'0 0.0
2016-Aug-24 03:33N 51°53' E 004°17'0 0.0
2016-Aug-24 02:33N 51°53' E 004°17'0 0.0
2016-Aug-24 01:33N 51°53' E 004°17'0 0.0
2016-Aug-24 00:33N 51°53' E 004°17'0 0.0
2016-Aug-23 23:33N 51°53' E 004°17'0 0.0
2016-Aug-23 22:33N 51°53' E 004°17'0 0.0
2016-Aug-23 21:33N 51°53' E 004°17'0 0.0
2016-Aug-23 20:33N 51°53' E 004°17'0 0.0
2016-Aug-23 19:33N 51°53' E 004°17'0 0.4
2016-Aug-23 18:33N 51°53' E 004°16'0 0.0
2016-Aug-23 17:33N 51°53' E 004°16'0 0.1
2016-Aug-23 16:33N 51°53' E 004°16'0 0.5
2016-Aug-23 15:33N 51°53' E 004°17'0 0.0
2016-Aug-23 14:33N 51°53' E 004°17'0 0.0
2016-Aug-23 13:33N 51°53' E 004°17'0 0.1
2016-Aug-23 12:34N 51°53' E 004°17'0 0.0
2016-Aug-23 11:33N 51°53' E 004°17'0 0.0
2016-Aug-23 10:33N 51°53' E 004°17'0 0.0
2016-Aug-23 09:33N 51°53' E 004°17'0 0.0
2016-Aug-23 08:33N 51°53' E 004°17'0 0.0
2016-Aug-23 07:34N 51°53' E 004°17'0 0.0
2016-Aug-23 06:33N 51°53' E 004°17'0 0.1
2016-Aug-23 05:33N 51°53' E 004°16'0 0.1
2016-Aug-23 04:33N 51°53' E 004°17'0 0.0
2016-Aug-23 03:33N 51°53' E 004°17'0 0.0
2016-Aug-23 02:33N 51°53' E 004°17'0 0.0
2016-Aug-23 01:33N 51°53' E 004°17'0 0.0
2016-Aug-23 00:33N 51°53' E 004°17'0 0.0
2016-Aug-22 23:33N 51°53' E 004°17'0 0.0
2016-Aug-22 22:33N 51°53' E 004°17'0 0.0
2016-Aug-22 21:33N 51°53' E 004°17'0 0.0
2016-Aug-22 20:33N 51°53' E 004°17'0 0.0
2016-Aug-22 19:33N 51°53' E 004°17'3 2.7
2016-Aug-22 18:33N 51°54' E 004°21'5 5.3
2016-Aug-22 17:33N 51°55' E 004°29'0 0.0
2016-Aug-22 16:33N 51°55' E 004°29'0 0.0
2016-Aug-22 15:33N 51°55' E 004°29'0 0.0
2016-Aug-22 14:33N 51°55' E 004°29'0 0.0
2016-Aug-22 13:34N 51°55' E 004°29'0 0.0
2016-Aug-22 12:33N 51°55' E 004°29'4 4.3
2016-Aug-22 11:33N 51°54' E 004°36'8 8.0
2016-Aug-22 10:33N 51°49' E 004°47'9 8.4
2016-Aug-22 09:31N 51°49' E 005°01'9 8.1
2016-Aug-22 08:23N 51°49' E 005°16'14 7.5
2016-Aug-22 06:28N 51°54' E 005°37'9 8.9
2016-Aug-22 05:31N 51°51' E 005°50'1 1.0
2016-Aug-22 04:32N 51°51' E 005°52'0 0.0
2016-Aug-22 03:33N 51°51' E 005°52'0 0.0
2016-Aug-21 23:25N 51°51' E 005°52'0 0.0
2016-Aug-21 22:23N 51°51' E 005°52'0 0.0
2016-Aug-21 21:30N 51°51' E 005°52'0 0.0
2016-Aug-21 19:04N 51°51' E 005°52'0 0.0
2016-Aug-21 18:33N 51°51' E 005°52'0 0.0
2016-Aug-21 17:31N 51°51' E 005°52'24 6.1
2016-Aug-21 13:33N 51°41' E 006°28'7 6.7
2016-Aug-21 12:33N 51°37' E 006°36'8 6.8
2016-Aug-21 11:22N 51°30' E 006°43'13 6.4
2016-Aug-21 09:16N 51°17' E 006°42'3 4.6
2016-Aug-21 08:34N 51°14' E 006°43'6 5.7
2016-Aug-21 07:33N 51°10' E 006°50'  

Dump ship's entire track history